sensor_id;sensor_type;location;lat;lon;timestamp;P1;durP1;ratioP1;P2;durP2;ratioP2
21581;SDS011;10952;50.836;4.348;2022-09-30T00:01:35;17.07;;;11.43;;
21581;SDS011;10952;50.836;4.348;2022-09-30T00:04:04;17.53;;;11.77;;
21581;SDS011;10952;50.836;4.348;2022-09-30T00:06:31;19.20;;;10.77;;
21581;SDS011;10952;50.836;4.348;2022-09-30T00:08:59;18.13;;;11.57;;
21581;SDS011;10952;50.836;4.348;2022-09-30T00:11:30;15.57;;;10.73;;
21581;SDS011;10952;50.836;4.348;2022-09-30T00:13:58;18.93;;;11.73;;
21581;SDS011;10952;50.836;4.348;2022-09-30T00:16:27;18.40;;;12.00;;
21581;SDS011;10952;50.836;4.348;2022-09-30T00:18:57;16.10;;;11.57;;
21581;SDS011;10952;50.836;4.348;2022-09-30T00:21:24;25.77;;;17.53;;
21581;SDS011;10952;50.836;4.348;2022-09-30T00:23:52;16.50;;;11.53;;
21581;SDS011;10952;50.836;4.348;2022-09-30T00:26:20;16.00;;;11.20;;
21581;SDS011;10952;50.836;4.348;2022-09-30T00:28:49;19.17;;;10.87;;
21581;SDS011;10952;50.836;4.348;2022-09-30T00:31:21;16.77;;;11.13;;
21581;SDS011;10952;50.836;4.348;2022-09-30T00:33:48;17.40;;;10.97;;
21581;SDS011;10952;50.836;4.348;2022-09-30T00:36:52;17.30;;;11.07;;
21581;SDS011;10952;50.836;4.348;2022-09-30T00:39:22;17.03;;;11.73;;
21581;SDS011;10952;50.836;4.348;2022-09-30T00:41:51;19.87;;;11.87;;
21581;SDS011;10952;50.836;4.348;2022-09-30T00:47:22;19.90;;;11.10;;
21581;SDS011;10952;50.836;4.348;2022-09-30T00:49:59;16.80;;;10.80;;
21581;SDS011;10952;50.836;4.348;2022-09-30T00:52:34;19.20;;;12.40;;
21581;SDS011;10952;50.836;4.348;2022-09-30T00:55:01;17.40;;;10.87;;
21581;SDS011;10952;50.836;4.348;2022-09-30T00:57:32;15.00;;;10.93;;
21581;SDS011;10952;50.836;4.348;2022-09-30T00:59:59;17.67;;;10.93;;
21581;SDS011;10952;50.836;4.348;2022-09-30T01:02:26;15.47;;;11.33;;
21581;SDS011;10952;50.836;4.348;2022-09-30T01:04:52;17.70;;;11.83;;
21581;SDS011;10952;50.836;4.348;2022-09-30T01:07:19;17.83;;;11.63;;
21581;SDS011;10952;50.836;4.348;2022-09-30T01:09:47;19.47;;;11.97;;
21581;SDS011;10952;50.836;4.348;2022-09-30T01:12:14;16.80;;;11.03;;
21581;SDS011;10952;50.836;4.348;2022-09-30T01:14:43;19.07;;;11.73;;
21581;SDS011;10952;50.836;4.348;2022-09-30T01:20:21;15.60;;;11.10;;
21581;SDS011;10952;50.836;4.348;2022-09-30T01:23:08;17.93;;;10.73;;
21581;SDS011;10952;50.836;4.348;2022-09-30T01:28:53;14.20;;;11.30;;
21581;SDS011;10952;50.836;4.348;2022-09-30T01:37:40;17.53;;;11.10;;
21581;SDS011;10952;50.836;4.348;2022-09-30T01:39:46;15.23;;;11.33;;
21581;SDS011;10952;50.836;4.348;2022-09-30T01:45:24;17.77;;;12.17;;
21581;SDS011;10952;50.836;4.348;2022-09-30T01:48:06;17.80;;;11.57;;
21581;SDS011;10952;50.836;4.348;2022-09-30T01:50:53;18.13;;;11.93;;
21581;SDS011;10952;50.836;4.348;2022-09-30T01:56:31;16.30;;;11.83;;
21581;SDS011;10952;50.836;4.348;2022-09-30T01:59:01;16.30;;;11.93;;
21581;SDS011;10952;50.836;4.348;2022-09-30T02:01:48;18.07;;;12.07;;
21581;SDS011;10952;50.836;4.348;2022-09-30T02:04:41;16.43;;;12.20;;
21581;SDS011;10952;50.836;4.348;2022-09-30T02:07:12;16.57;;;12.00;;
21581;SDS011;10952;50.836;4.348;2022-09-30T02:09:53;17.13;;;11.67;;
21581;SDS011;10952;50.836;4.348;2022-09-30T02:12:26;17.03;;;12.10;;
21581;SDS011;10952;50.836;4.348;2022-09-30T02:20:21;17.07;;;12.00;;
21581;SDS011;10952;50.836;4.348;2022-09-30T02:23:02;17.13;;;12.13;;
21581;SDS011;10952;50.836;4.348;2022-09-30T02:25:50;21.87;;;11.53;;
21581;SDS011;10952;50.836;4.348;2022-09-30T02:28:40;18.67;;;12.23;;
21581;SDS011;10952;50.836;4.348;2022-09-30T02:31:19;20.77;;;13.07;;
21581;SDS011;10952;50.836;4.348;2022-09-30T02:39:49;16.30;;;12.40;;
21581;SDS011;10952;50.836;4.348;2022-09-30T02:42:20;19.47;;;12.40;;
21581;SDS011;10952;50.836;4.348;2022-09-30T02:44:51;20.23;;;14.00;;
21581;SDS011;10952;50.836;4.348;2022-09-30T02:47:24;22.97;;;14.27;;
21581;SDS011;10952;50.836;4.348;2022-09-30T02:57:38;18.53;;;13.43;;
21581;SDS011;10952;50.836;4.348;2022-09-30T03:00:07;19.97;;;13.53;;
21581;SDS011;10952;50.836;4.348;2022-09-30T03:02:35;21.13;;;13.03;;
21581;SDS011;10952;50.836;4.348;2022-09-30T03:05:02;21.40;;;12.07;;
21581;SDS011;10952;50.836;4.348;2022-09-30T03:07:29;18.03;;;12.60;;
21581;SDS011;10952;50.836;4.348;2022-09-30T03:09:55;20.93;;;12.70;;
21581;SDS011;10952;50.836;4.348;2022-09-30T03:12:38;22.10;;;12.30;;
21581;SDS011;10952;50.836;4.348;2022-09-30T03:21:14;21.00;;;11.87;;
21581;SDS011;10952;50.836;4.348;2022-09-30T03:24:11;20.07;;;12.10;;
21581;SDS011;10952;50.836;4.348;2022-09-30T03:32:15;25.13;;;13.10;;
21581;SDS011;10952;50.836;4.348;2022-09-30T03:35:15;24.80;;;12.00;;
21581;SDS011;10952;50.836;4.348;2022-09-30T03:43:10;23.17;;;13.10;;
21581;SDS011;10952;50.836;4.348;2022-09-30T03:45:44;24.03;;;13.73;;
21581;SDS011;10952;50.836;4.348;2022-09-30T03:48:17;23.07;;;12.53;;
21581;SDS011;10952;50.836;4.348;2022-09-30T03:50:45;22.67;;;13.10;;
21581;SDS011;10952;50.836;4.348;2022-09-30T03:53:11;25.73;;;13.53;;
21581;SDS011;10952;50.836;4.348;2022-09-30T03:55:46;20.30;;;12.93;;
21581;SDS011;10952;50.836;4.348;2022-09-30T03:58:15;24.03;;;12.67;;
21581;SDS011;10952;50.836;4.348;2022-09-30T04:00:52;23.03;;;12.73;;
21581;SDS011;10952;50.836;4.348;2022-09-30T04:03:21;18.27;;;13.07;;
21581;SDS011;10952;50.836;4.348;2022-09-30T04:05:49;21.87;;;13.93;;
21581;SDS011;10952;50.836;4.348;2022-09-30T04:08:15;24.17;;;15.10;;
21581;SDS011;10952;50.836;4.348;2022-09-30T04:10:41;22.70;;;13.73;;
21581;SDS011;10952;50.836;4.348;2022-09-30T04:13:08;22.73;;;14.50;;
21581;SDS011;10952;50.836;4.348;2022-09-30T04:15:36;23.13;;;15.57;;
21581;SDS011;10952;50.836;4.348;2022-09-30T04:18:02;21.97;;;13.77;;
21581;SDS011;10952;50.836;4.348;2022-09-30T04:20:29;25.90;;;15.70;;
21581;SDS011;10952;50.836;4.348;2022-09-30T04:22:56;22.10;;;14.97;;
21581;SDS011;10952;50.836;4.348;2022-09-30T04:25:23;25.60;;;16.50;;
21581;SDS011;10952;50.836;4.348;2022-09-30T04:27:51;23.33;;;16.23;;
21581;SDS011;10952;50.836;4.348;2022-09-30T04:30:19;25.23;;;17.37;;
21581;SDS011;10952;50.836;4.348;2022-09-30T04:32:47;30.50;;;18.93;;
21581;SDS011;10952;50.836;4.348;2022-09-30T04:35:13;31.63;;;19.10;;
21581;SDS011;10952;50.836;4.348;2022-09-30T04:37:42;28.63;;;19.27;;
21581;SDS011;10952;50.836;4.348;2022-09-30T04:40:10;28.80;;;18.77;;
21581;SDS011;10952;50.836;4.348;2022-09-30T04:42:37;31.33;;;20.77;;
21581;SDS011;10952;50.836;4.348;2022-09-30T04:45:05;30.10;;;21.53;;
21581;SDS011;10952;50.836;4.348;2022-09-30T04:47:31;28.33;;;20.67;;
21581;SDS011;10952;50.836;4.348;2022-09-30T04:49:59;41.37;;;22.00;;
21581;SDS011;10952;50.836;4.348;2022-09-30T04:52:26;31.37;;;20.57;;
21581;SDS011;10952;50.836;4.348;2022-09-30T04:54:51;29.47;;;19.07;;
21581;SDS011;10952;50.836;4.348;2022-09-30T04:57:18;30.30;;;20.20;;
21581;SDS011;10952;50.836;4.348;2022-09-30T04:59:45;32.13;;;20.47;;
21581;SDS011;10952;50.836;4.348;2022-09-30T05:02:12;30.03;;;21.07;;
21581;SDS011;10952;50.836;4.348;2022-09-30T05:04:38;33.40;;;21.30;;
21581;SDS011;10952;50.836;4.348;2022-09-30T05:07:04;34.03;;;22.07;;
21581;SDS011;10952;50.836;4.348;2022-09-30T05:09:33;35.20;;;22.03;;
21581;SDS011;10952;50.836;4.348;2022-09-30T05:12:02;36.37;;;23.40;;
21581;SDS011;10952;50.836;4.348;2022-09-30T05:14:28;34.43;;;22.57;;
21581;SDS011;10952;50.836;4.348;2022-09-30T05:16:55;32.30;;;21.00;;
21581;SDS011;10952;50.836;4.348;2022-09-30T05:19:21;29.63;;;19.87;;
21581;SDS011;10952;50.836;4.348;2022-09-30T05:21:47;31.67;;;20.17;;
21581;SDS011;10952;50.836;4.348;2022-09-30T05:24:12;32.47;;;22.00;;
21581;SDS011;10952;50.836;4.348;2022-09-30T05:26:38;30.80;;;21.00;;
21581;SDS011;10952;50.836;4.348;2022-09-30T05:29:05;29.80;;;20.50;;
21581;SDS011;10952;50.836;4.348;2022-09-30T05:31:32;31.53;;;20.63;;
21581;SDS011;10952;50.836;4.348;2022-09-30T05:33:58;33.93;;;21.47;;
21581;SDS011;10952;50.836;4.348;2022-09-30T05:36:24;39.47;;;22.60;;
21581;SDS011;10952;50.836;4.348;2022-09-30T05:38:50;32.87;;;22.80;;
21581;SDS011;10952;50.836;4.348;2022-09-30T05:41:17;31.60;;;22.10;;
21581;SDS011;10952;50.836;4.348;2022-09-30T05:43:47;36.80;;;22.73;;
21581;SDS011;10952;50.836;4.348;2022-09-30T05:46:16;38.27;;;21.97;;
21581;SDS011;10952;50.836;4.348;2022-09-30T05:48:43;34.77;;;21.30;;
21581;SDS011;10952;50.836;4.348;2022-09-30T05:51:09;38.70;;;22.57;;
21581;SDS011;10952;50.836;4.348;2022-09-30T05:53:36;35.60;;;22.33;;
21581;SDS011;10952;50.836;4.348;2022-09-30T05:56:03;37.67;;;24.57;;
21581;SDS011;10952;50.836;4.348;2022-09-30T05:58:30;37.27;;;23.53;;
21581;SDS011;10952;50.836;4.348;2022-09-30T06:01:06;36.17;;;22.97;;
21581;SDS011;10952;50.836;4.348;2022-09-30T06:03:34;41.40;;;22.27;;
21581;SDS011;10952;50.836;4.348;2022-09-30T06:06:00;33.43;;;21.83;;
21581;SDS011;10952;50.836;4.348;2022-09-30T06:08:26;39.67;;;22.70;;
21581;SDS011;10952;50.836;4.348;2022-09-30T06:10:52;38.33;;;21.73;;
21581;SDS011;10952;50.836;4.348;2022-09-30T06:13:19;35.00;;;21.63;;
21581;SDS011;10952;50.836;4.348;2022-09-30T06:15:59;40.13;;;22.70;;
21581;SDS011;10952;50.836;4.348;2022-09-30T06:18:26;37.20;;;22.60;;
21581;SDS011;10952;50.836;4.348;2022-09-30T06:20:57;36.23;;;21.37;;
21581;SDS011;10952;50.836;4.348;2022-09-30T06:23:25;39.63;;;22.90;;
21581;SDS011;10952;50.836;4.348;2022-09-30T06:25:51;35.40;;;21.07;;
21581;SDS011;10952;50.836;4.348;2022-09-30T06:28:19;39.20;;;23.73;;
21581;SDS011;10952;50.836;4.348;2022-09-30T06:30:46;34.50;;;21.40;;
21581;SDS011;10952;50.836;4.348;2022-09-30T06:33:13;33.57;;;21.57;;
21581;SDS011;10952;50.836;4.348;2022-09-30T06:35:39;36.47;;;22.73;;
21581;SDS011;10952;50.836;4.348;2022-09-30T06:38:07;35.50;;;23.43;;
21581;SDS011;10952;50.836;4.348;2022-09-30T06:40:34;35.83;;;22.43;;
21581;SDS011;10952;50.836;4.348;2022-09-30T06:43:01;42.53;;;22.30;;
21581;SDS011;10952;50.836;4.348;2022-09-30T06:45:28;39.23;;;23.97;;
21581;SDS011;10952;50.836;4.348;2022-09-30T06:47:57;35.57;;;22.87;;
21581;SDS011;10952;50.836;4.348;2022-09-30T06:50:23;35.47;;;22.90;;
21581;SDS011;10952;50.836;4.348;2022-09-30T06:52:49;33.43;;;21.30;;
21581;SDS011;10952;50.836;4.348;2022-09-30T06:55:16;29.67;;;21.40;;
21581;SDS011;10952;50.836;4.348;2022-09-30T06:57:43;42.47;;;23.10;;
21581;SDS011;10952;50.836;4.348;2022-09-30T07:00:12;36.40;;;24.50;;
21581;SDS011;10952;50.836;4.348;2022-09-30T07:02:41;39.23;;;22.37;;
21581;SDS011;10952;50.836;4.348;2022-09-30T07:05:08;32.87;;;21.80;;
21581;SDS011;10952;50.836;4.348;2022-09-30T07:10:03;37.20;;;20.47;;
21581;SDS011;10952;50.836;4.348;2022-09-30T07:12:29;43.00;;;22.63;;
21581;SDS011;10952;50.836;4.348;2022-09-30T07:14:57;29.63;;;20.23;;
21581;SDS011;10952;50.836;4.348;2022-09-30T07:17:24;30.00;;;20.17;;
21581;SDS011;10952;50.836;4.348;2022-09-30T07:19:53;34.07;;;21.37;;
21581;SDS011;10952;50.836;4.348;2022-09-30T07:22:19;30.23;;;19.70;;
21581;SDS011;10952;50.836;4.348;2022-09-30T07:24:53;31.80;;;19.87;;
21581;SDS011;10952;50.836;4.348;2022-09-30T07:27:23;37.23;;;20.97;;
21581;SDS011;10952;50.836;4.348;2022-09-30T07:29:53;32.17;;;20.40;;
21581;SDS011;10952;50.836;4.348;2022-09-30T07:32:21;33.00;;;20.73;;
21581;SDS011;10952;50.836;4.348;2022-09-30T07:34:48;32.67;;;18.47;;
21581;SDS011;10952;50.836;4.348;2022-09-30T07:37:16;33.50;;;18.53;;
21581;SDS011;10952;50.836;4.348;2022-09-30T07:39:43;31.00;;;20.33;;
21581;SDS011;10952;50.836;4.348;2022-09-30T07:42:13;26.33;;;18.60;;
21581;SDS011;10952;50.836;4.348;2022-09-30T07:44:41;28.10;;;18.83;;
21581;SDS011;10952;50.836;4.348;2022-09-30T07:47:09;28.30;;;17.77;;
21581;SDS011;10952;50.836;4.348;2022-09-30T07:49:37;33.13;;;18.87;;
21581;SDS011;10952;50.836;4.348;2022-09-30T07:52:03;29.83;;;18.73;;
21581;SDS011;10952;50.836;4.348;2022-09-30T07:54:31;33.30;;;18.60;;
21581;SDS011;10952;50.836;4.348;2022-09-30T07:56:58;29.13;;;19.13;;
21581;SDS011;10952;50.836;4.348;2022-09-30T07:59:27;30.80;;;18.20;;
21581;SDS011;10952;50.836;4.348;2022-09-30T08:01:54;35.40;;;18.43;;
21581;SDS011;10952;50.836;4.348;2022-09-30T08:04:21;28.23;;;17.37;;
21581;SDS011;10952;50.836;4.348;2022-09-30T08:06:49;25.97;;;17.33;;
21581;SDS011;10952;50.836;4.348;2022-09-30T08:09:18;32.83;;;17.93;;
21581;SDS011;10952;50.836;4.348;2022-09-30T08:11:46;28.90;;;18.93;;
21581;SDS011;10952;50.836;4.348;2022-09-30T08:14:13;26.30;;;16.53;;
21581;SDS011;10952;50.836;4.348;2022-09-30T08:16:44;28.03;;;16.20;;
21581;SDS011;10952;50.836;4.348;2022-09-30T08:19:15;24.47;;;15.87;;
21581;SDS011;10952;50.836;4.348;2022-09-30T08:21:44;31.33;;;16.47;;
21581;SDS011;10952;50.836;4.348;2022-09-30T08:24:10;26.10;;;15.07;;
21581;SDS011;10952;50.836;4.348;2022-09-30T08:26:37;25.83;;;15.73;;
21581;SDS011;10952;50.836;4.348;2022-09-30T08:29:03;24.50;;;15.63;;
21581;SDS011;10952;50.836;4.348;2022-09-30T08:31:29;31.70;;;15.43;;
21581;SDS011;10952;50.836;4.348;2022-09-30T08:33:57;29.63;;;17.33;;
21581;SDS011;10952;50.836;4.348;2022-09-30T08:36:26;27.20;;;15.07;;
21581;SDS011;10952;50.836;4.348;2022-09-30T08:38:55;32.70;;;18.07;;
21581;SDS011;10952;50.836;4.348;2022-09-30T08:44:22;22.17;;;13.67;;
21581;SDS011;10952;50.836;4.348;2022-09-30T08:52:25;22.90;;;13.07;;
21581;SDS011;10952;50.836;4.348;2022-09-30T08:54:55;24.47;;;13.67;;
21581;SDS011;10952;50.836;4.348;2022-09-30T08:57:25;22.60;;;12.17;;
21581;SDS011;10952;50.836;4.348;2022-09-30T09:00:03;28.43;;;13.47;;
21581;SDS011;10952;50.836;4.348;2022-09-30T09:02:45;17.67;;;11.13;;
21581;SDS011;10952;50.836;4.348;2022-09-30T09:19:28;14.90;;;10.13;;
21581;SDS011;10952;50.836;4.348;2022-09-30T09:22:07;19.17;;;10.67;;
21581;SDS011;10952;50.836;4.348;2022-09-30T09:27:22;18.60;;;9.97;;
21581;SDS011;10952;50.836;4.348;2022-09-30T09:30:05;20.97;;;10.23;;
21581;SDS011;10952;50.836;4.348;2022-09-30T09:32:32;19.57;;;10.30;;
21581;SDS011;10952;50.836;4.348;2022-09-30T09:35:00;12.07;;;7.70;;
21581;SDS011;10952;50.836;4.348;2022-09-30T09:37:46;17.03;;;10.47;;
21581;SDS011;10952;50.836;4.348;2022-09-30T09:40:47;13.70;;;7.93;;
21581;SDS011;10952;50.836;4.348;2022-09-30T09:46:34;13.43;;;7.03;;
21581;SDS011;10952;50.836;4.348;2022-09-30T09:49:30;14.20;;;7.07;;
21581;SDS011;10952;50.836;4.348;2022-09-30T09:54:39;11.37;;;6.40;;
21581;SDS011;10952;50.836;4.348;2022-09-30T09:57:16;14.80;;;6.10;;
21581;SDS011;10952;50.836;4.348;2022-09-30T10:02:23;12.80;;;6.00;;
21581;SDS011;10952;50.836;4.348;2022-09-30T10:04:54;7.53;;;5.50;;
21581;SDS011;10952;50.836;4.348;2022-09-30T10:07:31;13.83;;;6.73;;
21581;SDS011;10952;50.836;4.348;2022-09-30T10:10:06;13.23;;;6.00;;
21581;SDS011;10952;50.836;4.348;2022-09-30T10:12:33;12.90;;;5.60;;
21581;SDS011;10952;50.836;4.348;2022-09-30T10:15:00;9.37;;;5.23;;
21581;SDS011;10952;50.836;4.348;2022-09-30T10:17:33;11.50;;;5.70;;
21581;SDS011;10952;50.836;4.348;2022-09-30T10:20:16;8.53;;;5.80;;
21581;SDS011;10952;50.836;4.348;2022-09-30T10:25:24;9.13;;;5.90;;
21581;SDS011;10952;50.836;4.348;2022-09-30T10:27:52;11.10;;;5.00;;
21581;SDS011;10952;50.836;4.348;2022-09-30T10:33:18;10.50;;;7.20;;
21581;SDS011;10952;50.836;4.348;2022-09-30T10:35:51;11.53;;;5.80;;
21581;SDS011;10952;50.836;4.348;2022-09-30T10:38:28;8.43;;;4.97;;
21581;SDS011;10952;50.836;4.348;2022-09-30T10:40:57;12.23;;;5.10;;
21581;SDS011;10952;50.836;4.348;2022-09-30T10:43:28;10.37;;;5.17;;
21581;SDS011;10952;50.836;4.348;2022-09-30T10:45:57;11.50;;;5.47;;
21581;SDS011;10952;50.836;4.348;2022-09-30T10:48:30;9.40;;;6.10;;
21581;SDS011;10952;50.836;4.348;2022-09-30T10:50:59;10.87;;;5.27;;
21581;SDS011;10952;50.836;4.348;2022-09-30T10:53:29;9.43;;;5.80;;
21581;SDS011;10952;50.836;4.348;2022-09-30T10:56:00;7.43;;;4.80;;
21581;SDS011;10952;50.836;4.348;2022-09-30T11:01:19;8.87;;;4.77;;
21581;SDS011;10952;50.836;4.348;2022-09-30T11:06:39;13.27;;;5.90;;
21581;SDS011;10952;50.836;4.348;2022-09-30T11:09:07;9.02;;;4.63;;
21581;SDS011;10952;50.836;4.348;2022-09-30T11:11:59;10.52;;;4.88;;
21581;SDS011;10952;50.836;4.348;2022-09-30T11:15:19;9.40;;;5.32;;
21581;SDS011;10952;50.836;4.348;2022-09-30T11:20:36;7.47;;;4.10;;
21581;SDS011;10952;50.836;4.348;2022-09-30T11:40:29;7.57;;;4.43;;
21581;SDS011;10952;50.836;4.348;2022-09-30T11:43:07;10.43;;;5.17;;
21581;SDS011;10952;50.836;4.348;2022-09-30T11:48:39;9.73;;;4.83;;
21581;SDS011;10952;50.836;4.348;2022-09-30T11:59:18;7.30;;;5.00;;
21581;SDS011;10952;50.836;4.348;2022-09-30T12:01:57;16.83;;;5.73;;
21581;SDS011;10952;50.836;4.348;2022-09-30T12:04:40;10.03;;;5.37;;
21581;SDS011;10952;50.836;4.348;2022-09-30T12:07:16;6.03;;;4.30;;
21581;SDS011;10952;50.836;4.348;2022-09-30T12:09:45;14.20;;;5.07;;
21581;SDS011;10952;50.836;4.348;2022-09-30T12:12:17;13.10;;;5.80;;
21581;SDS011;10952;50.836;4.348;2022-09-30T12:14:48;8.83;;;4.67;;
21581;SDS011;10952;50.836;4.348;2022-09-30T12:17:24;6.87;;;4.53;;
21581;SDS011;10952;50.836;4.348;2022-09-30T12:20:18;7.40;;;4.30;;
21581;SDS011;10952;50.836;4.348;2022-09-30T12:25:59;7.17;;;4.53;;
21581;SDS011;10952;50.836;4.348;2022-09-30T12:34:24;9.17;;;4.70;;
21581;SDS011;10952;50.836;4.348;2022-09-30T12:37:27;10.17;;;6.17;;
21581;SDS011;10952;50.836;4.348;2022-09-30T12:40:23;8.97;;;4.70;;
21581;SDS011;10952;50.836;4.348;2022-09-30T12:46:15;9.87;;;5.10;;
21581;SDS011;10952;50.836;4.348;2022-09-30T12:48:51;8.60;;;4.40;;
21581;SDS011;10952;50.836;4.348;2022-09-30T12:51:29;14.43;;;6.50;;
21581;SDS011;10952;50.836;4.348;2022-09-30T12:54:04;7.80;;;4.33;;
21581;SDS011;10952;50.836;4.348;2022-09-30T12:56:43;9.73;;;4.97;;
21581;SDS011;10952;50.836;4.348;2022-09-30T12:59:13;10.60;;;4.50;;
21581;SDS011;10952;50.836;4.348;2022-09-30T13:01:47;7.07;;;5.10;;
21581;SDS011;10952;50.836;4.348;2022-09-30T13:04:32;7.70;;;4.57;;
21581;SDS011;10952;50.836;4.348;2022-09-30T13:09:54;11.77;;;4.93;;
21581;SDS011;10952;50.836;4.348;2022-09-30T13:12:26;12.40;;;4.60;;
21581;SDS011;10952;50.836;4.348;2022-09-30T13:28:49;14.93;;;5.90;;
21581;SDS011;10952;50.836;4.348;2022-09-30T13:31:20;9.83;;;5.77;;
21581;SDS011;10952;50.836;4.348;2022-09-30T13:34:04;9.60;;;6.03;;
21581;SDS011;10952;50.836;4.348;2022-09-30T13:48:00;8.37;;;4.93;;
21581;SDS011;10952;50.836;4.348;2022-09-30T13:55:55;10.50;;;4.23;;
21581;SDS011;10952;50.836;4.348;2022-09-30T14:04:11;7.50;;;4.70;;
21581;SDS011;10952;50.836;4.348;2022-09-30T14:10:18;9.90;;;3.60;;
21581;SDS011;10952;50.836;4.348;2022-09-30T14:23:29;9.30;;;3.20;;
21581;SDS011;10952;50.836;4.348;2022-09-30T14:26:01;8.87;;;3.30;;
21581;SDS011;10952;50.836;4.348;2022-09-30T14:28:52;8.43;;;3.47;;
21581;SDS011;10952;50.836;4.348;2022-09-30T14:31:19;6.13;;;3.53;;
21581;SDS011;10952;50.836;4.348;2022-09-30T14:33:46;7.33;;;3.80;;
21581;SDS011;10952;50.836;4.348;2022-09-30T14:36:15;9.10;;;4.00;;
21581;SDS011;10952;50.836;4.348;2022-09-30T14:38:44;5.37;;;2.80;;
21581;SDS011;10952;50.836;4.348;2022-09-30T14:41:21;7.63;;;3.17;;
21581;SDS011;10952;50.836;4.348;2022-09-30T14:43:58;5.00;;;3.00;;
21581;SDS011;10952;50.836;4.348;2022-09-30T14:46:31;7.70;;;3.30;;
21581;SDS011;10952;50.836;4.348;2022-09-30T14:49:02;6.80;;;3.83;;
21581;SDS011;10952;50.836;4.348;2022-09-30T14:51:37;4.63;;;3.03;;
21581;SDS011;10952;50.836;4.348;2022-09-30T14:54:22;7.07;;;2.90;;
21581;SDS011;10952;50.836;4.348;2022-09-30T14:56:53;5.20;;;2.90;;
21581;SDS011;10952;50.836;4.348;2022-09-30T14:59:24;10.83;;;3.40;;
21581;SDS011;10952;50.836;4.348;2022-09-30T15:01:53;5.40;;;2.53;;
21581;SDS011;10952;50.836;4.348;2022-09-30T15:04:28;4.87;;;2.47;;
21581;SDS011;10952;50.836;4.348;2022-09-30T15:06:57;3.47;;;2.67;;
21581;SDS011;10952;50.836;4.348;2022-09-30T15:09:35;4.37;;;2.40;;
21581;SDS011;10952;50.836;4.348;2022-09-30T15:14:47;7.40;;;2.93;;
21581;SDS011;10952;50.836;4.348;2022-09-30T15:17:21;7.80;;;3.20;;
21581;SDS011;10952;50.836;4.348;2022-09-30T15:19:53;9.00;;;2.70;;
21581;SDS011;10952;50.836;4.348;2022-09-30T15:22:22;5.10;;;2.70;;
21581;SDS011;10952;50.836;4.348;2022-09-30T15:24:51;4.27;;;2.70;;
21581;SDS011;10952;50.836;4.348;2022-09-30T15:27:26;5.77;;;2.63;;
21581;SDS011;10952;50.836;4.348;2022-09-30T15:30:00;4.13;;;2.50;;
21581;SDS011;10952;50.836;4.348;2022-09-30T15:32:47;4.37;;;2.53;;
21581;SDS011;10952;50.836;4.348;2022-09-30T15:35:21;7.57;;;3.00;;
21581;SDS011;10952;50.836;4.348;2022-09-30T15:37:49;6.40;;;3.53;;
21581;SDS011;10952;50.836;4.348;2022-09-30T15:40:20;6.60;;;3.47;;
21581;SDS011;10952;50.836;4.348;2022-09-30T15:43:10;7.87;;;3.10;;
21581;SDS011;10952;50.836;4.348;2022-09-30T15:45:44;5.47;;;3.00;;
21581;SDS011;10952;50.836;4.348;2022-09-30T15:50:50;6.33;;;3.33;;
21581;SDS011;10952;50.836;4.348;2022-09-30T15:53:19;8.60;;;3.97;;
21581;SDS011;10952;50.836;4.348;2022-09-30T16:03:35;6.07;;;3.27;;
21581;SDS011;10952;50.836;4.348;2022-09-30T16:11:17;5.80;;;3.50;;
21581;SDS011;10952;50.836;4.348;2022-09-30T16:13:52;6.10;;;3.60;;
21581;SDS011;10952;50.836;4.348;2022-09-30T16:16:24;8.20;;;3.30;;
21581;SDS011;10952;50.836;4.348;2022-09-30T16:18:55;6.20;;;3.60;;
21581;SDS011;10952;50.836;4.348;2022-09-30T16:21:41;5.63;;;3.40;;
21581;SDS011;10952;50.836;4.348;2022-09-30T16:26:48;13.17;;;3.80;;
21581;SDS011;10952;50.836;4.348;2022-09-30T16:29:14;6.23;;;2.90;;
21581;SDS011;10952;50.836;4.348;2022-09-30T16:31:42;6.40;;;3.33;;
21581;SDS011;10952;50.836;4.348;2022-09-30T16:34:17;5.70;;;3.20;;
21581;SDS011;10952;50.836;4.348;2022-09-30T16:36:47;4.90;;;2.53;;
21581;SDS011;10952;50.836;4.348;2022-09-30T16:39:15;6.43;;;2.80;;
21581;SDS011;10952;50.836;4.348;2022-09-30T16:41:41;6.47;;;3.03;;
21581;SDS011;10952;50.836;4.348;2022-09-30T16:44:07;6.60;;;3.47;;
21581;SDS011;10952;50.836;4.348;2022-09-30T16:46:34;4.73;;;2.33;;
21581;SDS011;10952;50.836;4.348;2022-09-30T16:49:17;6.03;;;3.13;;
21581;SDS011;10952;50.836;4.348;2022-09-30T16:51:43;3.90;;;2.30;;
21581;SDS011;10952;50.836;4.348;2022-09-30T16:54:10;5.27;;;2.73;;
21581;SDS011;10952;50.836;4.348;2022-09-30T16:56:37;17.43;;;11.77;;
21581;SDS011;10952;50.836;4.348;2022-09-30T16:59:05;19.80;;;13.73;;
21581;SDS011;10952;50.836;4.348;2022-09-30T17:01:37;4.97;;;2.87;;
21581;SDS011;10952;50.836;4.348;2022-09-30T17:04:04;6.67;;;3.23;;
21581;SDS011;10952;50.836;4.348;2022-09-30T17:06:30;4.83;;;2.30;;
21581;SDS011;10952;50.836;4.348;2022-09-30T17:08:58;5.57;;;2.80;;
21581;SDS011;10952;50.836;4.348;2022-09-30T17:11:28;5.73;;;2.80;;
21581;SDS011;10952;50.836;4.348;2022-09-30T17:13:56;5.03;;;2.50;;
21581;SDS011;10952;50.836;4.348;2022-09-30T17:16:26;6.67;;;3.20;;
21581;SDS011;10952;50.836;4.348;2022-09-30T17:18:52;6.57;;;2.50;;
21581;SDS011;10952;50.836;4.348;2022-09-30T17:21:18;5.27;;;3.90;;
21581;SDS011;10952;50.836;4.348;2022-09-30T17:23:45;8.20;;;3.43;;
21581;SDS011;10952;50.836;4.348;2022-09-30T17:26:11;8.23;;;4.60;;
21581;SDS011;10952;50.836;4.348;2022-09-30T17:28:38;8.30;;;4.57;;
21581;SDS011;10952;50.836;4.348;2022-09-30T17:31:08;7.50;;;4.33;;
21581;SDS011;10952;50.836;4.348;2022-09-30T17:33:35;7.93;;;3.73;;
21581;SDS011;10952;50.836;4.348;2022-09-30T17:36:04;5.10;;;3.27;;
21581;SDS011;10952;50.836;4.348;2022-09-30T17:38:32;10.77;;;3.60;;
21581;SDS011;10952;50.836;4.348;2022-09-30T17:40:58;7.20;;;3.23;;
21581;SDS011;10952;50.836;4.348;2022-09-30T17:43:44;6.47;;;3.33;;
21581;SDS011;10952;50.836;4.348;2022-09-30T17:46:11;7.50;;;3.40;;
21581;SDS011;10952;50.836;4.348;2022-09-30T17:48:47;7.57;;;4.17;;
21581;SDS011;10952;50.836;4.348;2022-09-30T17:51:14;8.83;;;3.67;;
21581;SDS011;10952;50.836;4.348;2022-09-30T17:53:41;7.50;;;3.10;;
21581;SDS011;10952;50.836;4.348;2022-09-30T17:56:17;6.53;;;3.50;;
21581;SDS011;10952;50.836;4.348;2022-09-30T17:58:49;6.43;;;3.83;;
21581;SDS011;10952;50.836;4.348;2022-09-30T18:01:17;5.60;;;3.27;;
21581;SDS011;10952;50.836;4.348;2022-09-30T18:03:46;6.20;;;3.10;;
21581;SDS011;10952;50.836;4.348;2022-09-30T18:06:12;4.87;;;3.37;;
21581;SDS011;10952;50.836;4.348;2022-09-30T18:08:40;8.70;;;3.50;;
21581;SDS011;10952;50.836;4.348;2022-09-30T18:11:06;9.73;;;3.23;;
21581;SDS011;10952;50.836;4.348;2022-09-30T18:13:33;6.33;;;3.60;;
21581;SDS011;10952;50.836;4.348;2022-09-30T18:15:59;7.23;;;3.17;;
21581;SDS011;10952;50.836;4.348;2022-09-30T18:18:32;9.57;;;3.50;;
21581;SDS011;10952;50.836;4.348;2022-09-30T18:21:00;6.50;;;3.83;;
21581;SDS011;10952;50.836;4.348;2022-09-30T18:23:26;10.57;;;4.20;;
21581;SDS011;10952;50.836;4.348;2022-09-30T18:25:51;8.73;;;4.03;;
21581;SDS011;10952;50.836;4.348;2022-09-30T18:28:20;8.47;;;4.43;;
21581;SDS011;10952;50.836;4.348;2022-09-30T18:30:47;7.33;;;3.77;;
21581;SDS011;10952;50.836;4.348;2022-09-30T18:33:12;7.20;;;3.93;;
21581;SDS011;10952;50.836;4.348;2022-09-30T18:35:42;8.00;;;4.70;;
21581;SDS011;10952;50.836;4.348;2022-09-30T18:38:08;24.17;;;10.67;;